DAL8958 KCMH-KRDU
Flight info
| Callsign | DAL8958 |
|---|---|
| Flight time | N/A |
| Altitude | 31000 |
| Route | POBSE OHIOS ASERY ROA FRIKY ALDAN4 |
| Aircraft | B738/M-SDE2E3FGHIRWXY/LB1 |
Departure
| Time | N/A |
|---|---|
| Airport | John Glenn Columbus International Airport (KCMH) |
Arrival
| Time | 2026-05-05 14:32 |
|---|---|
| Airport | Raleigh-Durham International Airport (KRDU) |
| Time | Latitude | Longitude | Altitude | Speed | Heading |
|---|---|---|---|---|---|
| 2026-05-05 13:45 | 38.78536 | -82.55174 | 28101 ft | 475 kts | 108° |
| 2026-05-05 13:45 | 38.77590 | -82.51112 | 28408 ft | 478 kts | 107° |
| 2026-05-05 13:46 | 38.76668 | -82.47007 | 28773 ft | 480 kts | 107° |
| 2026-05-05 13:46 | 38.75740 | -82.42903 | 29301 ft | 477 kts | 107° |
| 2026-05-05 13:46 | 38.74812 | -82.38887 | 29825 ft | 475 kts | 107° |
| 2026-05-05 13:46 | 38.73857 | -82.34840 | 30222 ft | 475 kts | 108° |
| 2026-05-05 13:47 | 38.72880 | -82.30776 | 30501 ft | 477 kts | 108° |
| 2026-05-05 13:47 | 38.71892 | -82.26705 | 30751 ft | 480 kts | 108° |
| 2026-05-05 13:47 | 38.70897 | -82.22628 | 30928 ft | 481 kts | 108° |
| 2026-05-05 13:47 | 38.69895 | -82.18531 | 30915 ft | 481 kts | 108° |
| 2026-05-05 13:48 | 38.67900 | -82.10390 | 30918 ft | 478 kts | 108° |
| 2026-05-05 13:48 | 38.65908 | -82.02277 | 30927 ft | 477 kts | 108° |
| 2026-05-05 13:49 | 38.63917 | -81.94191 | 30923 ft | 478 kts | 108° |
| 2026-05-05 13:49 | 38.61923 | -81.86118 | 30935 ft | 478 kts | 108° |
| 2026-05-05 13:50 | 38.59915 | -81.78017 | 30943 ft | 477 kts | 108° |
| 2026-05-05 13:50 | 38.57900 | -81.69914 | 30956 ft | 477 kts | 108° |
| 2026-05-05 13:51 | 38.55884 | -81.61837 | 30964 ft | 477 kts | 108° |
| 2026-05-05 13:51 | 38.53865 | -81.53769 | 30968 ft | 477 kts | 108° |
| 2026-05-05 13:52 | 38.51840 | -81.45706 | 30971 ft | 477 kts | 108° |
| 2026-05-05 13:52 | 38.49817 | -81.37674 | 30963 ft | 477 kts | 108° |
| 2026-05-05 13:53 | 38.47136 | -81.29965 | 30959 ft | 476 kts | 125° |
| 2026-05-05 13:53 | 38.42792 | -81.23665 | 30959 ft | 470 kts | 142° |
| 2026-05-05 13:54 | 38.37798 | -81.18273 | 30947 ft | 471 kts | 143° |
| 2026-05-05 13:54 | 38.32808 | -81.12925 | 30959 ft | 471 kts | 142° |
| 2026-05-05 13:55 | 38.27806 | -81.07497 | 30968 ft | 473 kts | 142° |
| 2026-05-05 13:55 | 38.22811 | -81.02043 | 30965 ft | 473 kts | 142° |
| 2026-05-05 13:56 | 38.17807 | -80.96582 | 30963 ft | 473 kts | 142° |
| 2026-05-05 13:56 | 38.12806 | -80.91136 | 30972 ft | 472 kts | 142° |
| 2026-05-05 13:57 | 38.07806 | -80.85705 | 30982 ft | 472 kts | 142° |
| 2026-05-05 13:57 | 38.02822 | -80.80301 | 30993 ft | 471 kts | 142° |
| 2026-05-05 13:58 | 37.97881 | -80.74954 | 31008 ft | 470 kts | 141° |
| 2026-05-05 13:58 | 37.92905 | -80.69580 | 31019 ft | 470 kts | 142° |
| 2026-05-05 13:59 | 37.85436 | -80.61530 | 31057 ft | 469 kts | 141° |
| 2026-05-05 14:00 | 37.78813 | -80.54412 | 31061 ft | 469 kts | 141° |
| 2026-05-05 14:00 | 37.72989 | -80.48165 | 31049 ft | 470 kts | 141° |
| 2026-05-05 14:01 | 37.68003 | -80.42828 | 31044 ft | 470 kts | 141° |
| 2026-05-05 14:01 | 37.63040 | -80.37525 | 31047 ft | 470 kts | 141° |
| 2026-05-05 14:02 | 37.58042 | -80.32195 | 31026 ft | 471 kts | 141° |
| 2026-05-05 14:02 | 37.53042 | -80.26872 | 31013 ft | 464 kts | 141° |
| 2026-05-05 14:03 | 37.48157 | -80.21680 | 31042 ft | 456 kts | 141° |
| 2026-05-05 14:03 | 37.43289 | -80.16516 | 30795 ft | 459 kts | 141° |
| 2026-05-05 14:04 | 37.40860 | -80.13941 | 30513 ft | 452 kts | 141° |
| 2026-05-05 14:04 | 37.38465 | -80.11405 | 30072 ft | 449 kts | 141° |
| 2026-05-05 14:04 | 37.36113 | -80.08917 | 29626 ft | 444 kts | 141° |
| 2026-05-05 14:04 | 37.33837 | -80.06306 | 29201 ft | 440 kts | 134° |
| 2026-05-05 14:05 | 37.31901 | -80.03349 | 28872 ft | 433 kts | 128° |
| 2026-05-05 14:05 | 37.30084 | -80.00339 | 28418 ft | 430 kts | 127° |
| 2026-05-05 14:05 | 37.28284 | -79.97355 | 28014 ft | 426 kts | 128° |
| 2026-05-05 14:05 | 37.26508 | -79.94461 | 27584 ft | 423 kts | 128° |
| 2026-05-05 14:06 | 37.24700 | -79.91553 | 27162 ft | 420 kts | 128° |
| 2026-05-05 14:06 | 37.22897 | -79.88670 | 26775 ft | 416 kts | 129° |
| 2026-05-05 14:06 | 37.21105 | -79.85817 | 26269 ft | 417 kts | 129° |
| 2026-05-05 14:06 | 37.19325 | -79.82987 | 26004 ft | 411 kts | 129° |
| 2026-05-05 14:07 | 37.17558 | -79.80180 | 25625 ft | 408 kts | 129° |
| 2026-05-05 14:07 | 37.15803 | -79.77392 | 25214 ft | 406 kts | 129° |
| 2026-05-05 14:07 | 37.14077 | -79.74651 | 24829 ft | 404 kts | 129° |
| 2026-05-05 14:07 | 37.12337 | -79.71889 | 24423 ft | 402 kts | 129° |
| 2026-05-05 14:08 | 37.10603 | -79.69138 | 24020 ft | 401 kts | 129° |
| 2026-05-05 14:08 | 37.08876 | -79.66401 | 23590 ft | 400 kts | 130° |
| 2026-05-05 14:08 | 37.07151 | -79.63668 | 23118 ft | 398 kts | 130° |
| 2026-05-05 14:08 | 37.05437 | -79.60955 | 22684 ft | 396 kts | 130° |
| 2026-05-05 14:09 | 37.03734 | -79.58261 | 22271 ft | 393 kts | 130° |
| 2026-05-05 14:09 | 37.02043 | -79.55588 | 21872 ft | 390 kts | 130° |
| 2026-05-05 14:09 | 37.00363 | -79.52937 | 21474 ft | 387 kts | 131° |
| 2026-05-05 14:09 | 36.98696 | -79.50306 | 21061 ft | 385 kts | 131° |
| 2026-05-05 14:10 | 36.97037 | -79.47692 | 20685 ft | 382 kts | 131° |
| 2026-05-05 14:10 | 36.95410 | -79.45128 | 20305 ft | 380 kts | 131° |
| 2026-05-05 14:10 | 36.93767 | -79.42542 | 19920 ft | 378 kts | 131° |
| 2026-05-05 14:10 | 36.92139 | -79.39982 | 19545 ft | 376 kts | 132° |
| 2026-05-05 14:11 | 36.90516 | -79.37432 | 19158 ft | 374 kts | 132° |
| 2026-05-05 14:11 | 36.88898 | -79.34889 | 18776 ft | 372 kts | 133° |
| 2026-05-05 14:11 | 36.87289 | -79.32366 | 18406 ft | 370 kts | 133° |
| 2026-05-05 14:11 | 36.85690 | -79.29858 | 17968 ft | 368 kts | 133° |
| 2026-05-05 14:12 | 36.84095 | -79.27360 | 17567 ft | 366 kts | 133° |
| 2026-05-05 14:12 | 36.82513 | -79.24882 | 17173 ft | 363 kts | 133° |
| 2026-05-05 14:12 | 36.80944 | -79.22429 | 16786 ft | 360 kts | 133° |
| 2026-05-05 14:12 | 36.79383 | -79.19987 | 16391 ft | 358 kts | 133° |
| 2026-05-05 14:13 | 36.77857 | -79.17603 | 15998 ft | 356 kts | 133° |
| 2026-05-05 14:13 | 36.76314 | -79.15193 | 15627 ft | 353 kts | 133° |
| 2026-05-05 14:13 | 36.74787 | -79.12812 | 15263 ft | 350 kts | 133° |
| 2026-05-05 14:13 | 36.73272 | -79.10448 | 14893 ft | 348 kts | 133° |
| 2026-05-05 14:14 | 36.71764 | -79.08099 | 14530 ft | 345 kts | 133° |
| 2026-05-05 14:14 | 36.70267 | -79.05769 | 14172 ft | 342 kts | 133° |
| 2026-05-05 14:14 | 36.68767 | -79.03474 | 13796 ft | 338 kts | 137° |
| 2026-05-05 14:14 | 36.66970 | -79.01681 | 13423 ft | 328 kts | 154° |
| 2026-05-05 14:15 | 36.64918 | -79.00608 | 13163 ft | 315 kts | 169° |
| 2026-05-05 14:15 | 36.62816 | -78.99970 | 12907 ft | 308 kts | 171° |
| 2026-05-05 14:15 | 36.60739 | -78.99398 | 12640 ft | 305 kts | 172° |
| 2026-05-05 14:15 | 36.58679 | -78.98834 | 12368 ft | 300 kts | 172° |
| 2026-05-05 14:16 | 36.56640 | -78.98266 | 12065 ft | 299 kts | 172° |
| 2026-05-05 14:16 | 36.54666 | -78.97706 | 12028 ft | 292 kts | 171° |
| 2026-05-05 14:16 | 36.52705 | -78.97144 | 12010 ft | 284 kts | 171° |
| 2026-05-05 14:16 | 36.50822 | -78.96600 | 12008 ft | 271 kts | 172° |
| 2026-05-05 14:17 | 36.49022 | -78.96078 | 12012 ft | 259 kts | 172° |
| 2026-05-05 14:17 | 36.47310 | -78.95582 | 12011 ft | 246 kts | 172° |
| 2026-05-05 14:17 | 36.45678 | -78.95109 | 12013 ft | 235 kts | 172° |
| 2026-05-05 14:17 | 36.44111 | -78.94655 | 12009 ft | 228 kts | 172° |
| 2026-05-05 14:18 | 36.42575 | -78.94212 | 12036 ft | 229 kts | 172° |
| 2026-05-05 14:18 | 36.40995 | -78.93760 | 12045 ft | 236 kts | 172° |
| 2026-05-05 14:18 | 36.39472 | -78.92954 | 11919 ft | 246 kts | 148° |
| 2026-05-05 14:18 | 36.38220 | -78.91486 | 11617 ft | 249 kts | 140° |
| 2026-05-05 14:19 | 36.36992 | -78.89904 | 10825 ft | 264 kts | 140° |
| 2026-05-05 14:19 | 36.36130 | -78.88790 | 10317 ft | 274 kts | 140° |
| 2026-05-05 14:19 | 36.34799 | -78.87072 | 9809 ft | 276 kts | 140° |
| 2026-05-05 14:19 | 36.33474 | -78.85369 | 9372 ft | 272 kts | 140° |
| 2026-05-05 14:20 | 36.31756 | -78.83172 | 8991 ft | 262 kts | 140° |
| 2026-05-05 14:20 | 36.30907 | -78.82089 | 8819 ft | 257 kts | 140° |
| 2026-05-05 14:20 | 36.29276 | -78.80029 | 8553 ft | 249 kts | 141° |
| 2026-05-05 14:20 | 36.28480 | -78.79029 | 8500 ft | 243 kts | 141° |
| 2026-05-05 14:21 | 36.27313 | -78.77561 | 8373 ft | 235 kts | 141° |
| 2026-05-05 14:21 | 36.26177 | -78.76122 | 8053 ft | 232 kts | 141° |
| 2026-05-05 14:21 | 36.25049 | -78.74692 | 7696 ft | 231 kts | 141° |
| 2026-05-05 14:21 | 36.23935 | -78.73279 | 7454 ft | 223 kts | 141° |
| 2026-05-05 14:22 | 36.22560 | -78.71528 | 7286 ft | 204 kts | 142° |
| 2026-05-05 14:22 | 36.21909 | -78.70704 | 7041 ft | 202 kts | 142° |
| 2026-05-05 14:22 | 36.20922 | -78.69457 | 6622 ft | 202 kts | 142° |
| 2026-05-05 14:22 | 36.19942 | -78.68218 | 6279 ft | 199 kts | 142° |
| 2026-05-05 14:23 | 36.18972 | -78.66996 | 6055 ft | 197 kts | 143° |
| 2026-05-05 14:23 | 36.17901 | -78.66078 | 5955 ft | 186 kts | 160° |
| 2026-05-05 14:23 | 36.16728 | -78.65340 | 5893 ft | 193 kts | 159° |
| 2026-05-05 14:23 | 36.15524 | -78.64556 | 5794 ft | 197 kts | 158° |
| 2026-05-05 14:24 | 36.14321 | -78.63761 | 5688 ft | 195 kts | 158° |
| 2026-05-05 14:24 | 36.13127 | -78.62968 | 5599 ft | 194 kts | 158° |
| 2026-05-05 14:24 | 36.11944 | -78.62177 | 5517 ft | 192 kts | 158° |
| 2026-05-05 14:24 | 36.10772 | -78.61399 | 5449 ft | 191 kts | 157° |
| 2026-05-05 14:25 | 36.09599 | -78.60619 | 5377 ft | 193 kts | 158° |
| 2026-05-05 14:25 | 36.08402 | -78.59827 | 5281 ft | 197 kts | 158° |
| 2026-05-05 14:25 | 36.07195 | -78.59027 | 5214 ft | 196 kts | 158° |
| 2026-05-05 14:25 | 36.05987 | -78.58209 | 5121 ft | 198 kts | 158° |
| 2026-05-05 14:26 | 36.04704 | -78.57898 | 4970 ft | 187 kts | 194° |
| 2026-05-05 14:26 | 36.03553 | -78.58576 | 4790 ft | 184 kts | 219° |
| 2026-05-05 14:26 | 36.02598 | -78.59652 | 4515 ft | 187 kts | 227° |
| 2026-05-05 14:26 | 36.01710 | -78.60812 | 4236 ft | 183 kts | 226° |
| 2026-05-05 14:27 | 36.00824 | -78.61936 | 3972 ft | 181 kts | 226° |
| 2026-05-05 14:27 | 35.99955 | -78.63020 | 3746 ft | 174 kts | 226° |
| 2026-05-05 14:27 | 35.99102 | -78.64077 | 3528 ft | 174 kts | 227° |
| 2026-05-05 14:27 | 35.98282 | -78.65095 | 3306 ft | 164 kts | 227° |
| 2026-05-05 14:28 | 35.97506 | -78.66056 | 3095 ft | 151 kts | 227° |
| 2026-05-05 14:28 | 35.96779 | -78.66930 | 2870 ft | 142 kts | 229° |
| 2026-05-05 14:28 | 35.96132 | -78.67748 | 2755 ft | 129 kts | 229° |
| 2026-05-05 14:28 | 35.95467 | -78.68528 | 2580 ft | 135 kts | 223° |
| 2026-05-05 14:29 | 35.94818 | -78.69368 | 2400 ft | 135 kts | 231° |
| 2026-05-05 14:29 | 35.94176 | -78.70197 | 2224 ft | 136 kts | 229° |
| 2026-05-05 14:29 | 35.93510 | -78.71033 | 2013 ft | 135 kts | 225° |
| 2026-05-05 14:29 | 35.92852 | -78.71839 | 1825 ft | 130 kts | 225° |
| 2026-05-05 14:30 | 35.92209 | -78.72618 | 1668 ft | 135 kts | 226° |
| 2026-05-05 14:30 | 35.91530 | -78.73455 | 1474 ft | 141 kts | 226° |
| 2026-05-05 14:30 | 35.90837 | -78.74311 | 1280 ft | 137 kts | 227° |
| 2026-05-05 14:30 | 35.90169 | -78.75144 | 1110 ft | 140 kts | 225° |
| 2026-05-05 14:31 | 35.89494 | -78.75979 | 927 ft | 132 kts | 222° |
| 2026-05-05 14:31 | 35.88830 | -78.76808 | 726 ft | 137 kts | 224° |
| 2026-05-05 14:31 | 35.88164 | -78.77631 | 550 ft | 134 kts | 225° |
| 2026-05-05 14:31 | 35.87530 | -78.78419 | 454 ft | 128 kts | 224° |
| 2026-05-05 14:32 | 35.86962 | -78.79115 | 413 ft | 97 kts | 225° |
| 2026-05-05 14:32 | 35.86627 | -78.79530 | 411 ft | 45 kts | 225° |
| 2026-05-05 14:32 | 35.86505 | -78.79688 | 411 ft | 15 kts | 239° |
| 2026-05-05 14:32 | 35.86512 | -78.79766 | 408 ft | 9 kts | 304° |
| 2026-05-05 14:33 | 35.86564 | -78.79794 | 410 ft | 8 kts | 11° |
| 2026-05-05 14:33 | 35.86608 | -78.79749 | 412 ft | 8 kts | 47° |
| 2026-05-05 14:33 | 35.86647 | -78.79700 | 411 ft | 8 kts | 44° |
| 2026-05-05 14:33 | 35.86686 | -78.79653 | 410 ft | 8 kts | 45° |
| 2026-05-05 14:34 | 35.86725 | -78.79605 | 410 ft | 8 kts | 45° |
| 2026-05-05 14:34 | 35.86762 | -78.79558 | 413 ft | 8 kts | 45° |
| 2026-05-05 14:34 | 35.86799 | -78.79513 | 416 ft | 7 kts | 45° |
| 2026-05-05 14:34 | 35.86834 | -78.79469 | 415 ft | 7 kts | 45° |
| 2026-05-05 14:35 | 35.86868 | -78.79426 | 416 ft | 7 kts | 45° |
| 2026-05-05 14:35 | 35.86903 | -78.79383 | 414 ft | 7 kts | 45° |
| 2026-05-05 14:35 | 35.86938 | -78.79341 | 416 ft | 7 kts | 45° |
| 2026-05-05 14:35 | 35.86972 | -78.79298 | 411 ft | 7 kts | 45° |
| 2026-05-05 14:36 | 35.87005 | -78.79257 | 412 ft | 7 kts | 45° |
| 2026-05-05 14:36 | 35.87039 | -78.79217 | 413 ft | 7 kts | 43° |
| 2026-05-05 14:36 | 35.87072 | -78.79178 | 414 ft | 6 kts | 44° |
| 2026-05-05 14:36 | 35.87103 | -78.79139 | 416 ft | 6 kts | 45° |
| 2026-05-05 14:37 | 35.87134 | -78.79102 | 417 ft | 6 kts | 45° |
| 2026-05-05 14:37 | 35.87166 | -78.79068 | 419 ft | 6 kts | 24° |
| 2026-05-05 14:37 | 35.87207 | -78.79075 | 418 ft | 6 kts | 342° |
| 2026-05-05 14:37 | 35.87248 | -78.79085 | 416 ft | 6 kts | 358° |
| 2026-05-05 14:38 | 35.87286 | -78.79082 | 422 ft | 5 kts | 5° |
| 2026-05-05 14:38 | 35.87300 | -78.79080 | 424 ft | 0 kts | 5° |